Aasiaat, Greenland

2:44 AM WGST on July 24, 2016 (GMT -0200)
Ilulissat | | Change Station

Elev 112 ft 69.24 °N, 51.07 °W | Updated 54 minutes ago

Clear
Clear
45 °F
Feels Like 43 °F
N
4
Wind Variable Wind from SSE

Today
High -- | Low -- °F
--% Chance of Precip.
Yesterday
High -- | Low -- °F
Precip. -- in
Pressure 30.01 in
Visibility 6.2 miles
Clouds
Windchill 43 °F
Dew Point 34 °F
Humidity 66%
Rainfall 0.00 in
Snow Depth Not available.
2:38 AM 0:28 AM
Waning Gibbous, 79% visible
METAR BGJN 240350Z AUTO 15003KT 9999NDV NCD 07/01 Q1016
Pressure 30.01 in
Visibility 6.2 miles
Clouds
Windchill 43 °F
Dew Point 34 °F
Humidity 66%
Rainfall 0.00 in
Snow Depth Not available.
2:38 AM 0:28 AM
Waning Gibbous, 79% visible
METAR BGJN 240350Z AUTO 15003KT 9999NDV NCD 07/01 Q1016

10-Day Weather Forecast

×

Almanac

Astronomy

Jul. 24, 2016 Rise Set
Actual Time
Civil Twilight
Nautical Twilight
Astronomical Twilight
Moon
Length of Visible Light
Length of Day
Tomorrow will be .
, % of the Moon is Illuminated

Today's Extremes

Country Highs Country Lows

Community

WunderPhotos

Upload Photos

1,927,030 photos uploaded!

WunderBlog® & News

Nearby

Air Quality

  Air Quality AQ Index Pollutant
Not available.

Snow Depth

Station Depth Elevation

Earthquake Activity

City Distance Mag. Time & Date
Minimum magnitude displayed is 2.5.

Coastal Water Temperatures

Place Temperature

Stations

Nearby Weather Stations

Station Location Temp. Windchill Dew Point Humidity Wind Precip. Elev Updated Type